Time;durP1;ratioP1;P1;durP2;ratioP2;P2;SDS_P1;SDS_P2;PMS_P1;PMS_P2;Temp;Humidity;BMP_temperature;BMP_pressure;BME280_temperature;BME280_humidity;BME280_pressure;Samples;Min_cycle;Max_cycle;Signal;HPM_P1;HPM_P2
2022/06/18 06:20:57;;;;;;;;;8.00;8.00;;;;;28.43;80.28;100877.81;6297658;22;45973;-95
2022/06/18 06:23:23;;;;;;;;;8.00;8.00;;;;;28.46;80.09;100872.38;6359422;22;47132;-90
2022/06/18 06:25:49;;;;;;;;;8.00;8.00;;;;;28.54;79.57;100883.84;6331081;22;45729;-90
2022/06/18 06:28:19;;;;;;;;;7.00;7.00;;;;;28.61;79.66;100887.25;6363063;22;45380;-91
2022/06/18 06:30:44;;;;;;;;;8.00;8.00;;;;;28.69;79.28;100900.53;6339260;22;45267;-90
2022/06/18 06:33:10;;;;;;;;;7.33;6.67;;;;;28.83;78.99;100926.25;6343096;22;45265;-88
2022/06/18 06:35:36;;;;;;;;;9.33;9.33;;;;;28.92;78.70;100927.78;6331675;22;45642;-90
2022/06/18 06:38:02;;;;;;;;;8.33;8.00;;;;;28.99;78.34;100942.91;6332065;22;45446;-90
2022/06/18 06:40:29;;;;;;;;;10.00;10.00;;;;;28.98;77.56;100947.44;6332810;22;45425;-91
2022/06/18 06:42:58;;;;;;;;;9.67;8.00;;;;;29.05;77.67;100949.94;6304933;22;47611;-91
2022/06/18 06:45:29;;;;;;;;;11.00;11.00;;;;;29.24;77.53;100980.03;6333282;22;45307;-90
2022/06/18 06:47:54;;;;;;;;;8.67;8.00;;;;;29.28;77.38;100978.13;6330809;22;45628;-92
2022/06/18 06:50:22;;;;;;;;;10.00;9.67;;;;;29.32;77.74;100972.59;6332683;22;45447;-91
2022/06/18 06:52:51;;;;;;;;;11.67;11.67;;;;;29.37;77.63;100972.44;6333871;22;45363;-90
2022/06/18 06:58:09;;;;;;;;;17.00;11.67;;;;;29.54;77.63;100979.13;6336146;22;45427;-90
2022/06/18 07:00:39;;;;;;;;;13.00;13.00;;;;;29.56;77.37;100982.66;6359200;22;45746;-90
2022/06/18 07:03:04;;;;;;;;;13.67;13.67;;;;;29.63;77.76;100986.97;6314873;22;47060;-88
2022/06/18 07:05:29;;;;;;;;;12.33;11.33;;;;;29.66;77.41;100984.16;6335578;22;45348;-89
2022/06/18 07:07:55;;;;;;;;;14.33;12.00;;;;;29.75;76.93;100992.94;6331717;22;45413;-88
2022/06/18 07:10:20;;;;;;;;;15.00;15.00;;;;;29.82;76.64;101012.59;6303583;22;45311;-89
2022/06/18 07:12:46;;;;;;;;;15.33;15.00;;;;;29.84;76.05;101006.16;6329841;22;47272;-89
2022/06/18 07:15:12;;;;;;;;;13.33;13.33;;;;;29.96;76.91;101006.72;6302521;22;45943;-90
2022/06/18 07:17:37;;;;;;;;;13.00;12.00;;;;;30.04;76.76;101010.06;6329976;22;45358;-90
2022/06/18 07:20:04;;;;;;;;;12.00;10.67;;;;;30.05;76.89;101002.84;6356602;22;45353;-88
2022/06/18 07:22:31;;;;;;;;;12.67;12.33;;;;;30.11;76.71;101000.81;6305085;22;47643;-90
2022/06/18 07:24:56;;;;;;;;;13.67;12.67;;;;;30.26;76.28;101016.56;6303393;22;45979;-91
2022/06/18 07:27:22;;;;;;;;;11.00;11.00;;;;;30.31;75.66;101028.13;6330570;22;45396;-90
2022/06/18 07:29:47;;;;;;;;;12.00;11.00;;;;;30.42;76.45;101025.09;6305004;22;45501;-90
2022/06/18 07:32:15;;;;;;;;;12.00;11.00;;;;;30.56;76.06;101039.03;6305139;22;47223;-89
2022/06/18 07:34:40;;;;;;;;;11.67;11.67;;;;;30.58;75.89;101033.56;6305874;22;45329;-90
2022/06/18 07:37:06;;;;;;;;;11.33;11.33;;;;;30.69;74.84;101063.00;6305188;22;45368;-89
2022/06/18 07:39:32;;;;;;;;;9.00;9.00;;;;;30.76;73.83;101080.81;6333559;22;45296;-89
2022/06/18 07:41:57;;;;;;;;;11.00;9.00;;;;;30.88;73.50;101090.31;6306726;22;46570;-90
2022/06/18 07:44:24;;;;;;;;;11.33;11.00;;;;;31.02;72.82;101113.38;6334745;22;45765;-89
2022/06/18 07:46:51;;;;;;;;;9.33;8.67;;;;;31.11;71.80;101136.53;6362348;22;45259;-90
2022/06/18 07:49:17;;;;;;;;;12.33;11.67;;;;;31.09;70.94;101136.59;6337727;22;45668;-90
2022/06/18 07:51:43;;;;;;;;;10.67;9.67;;;;;31.24;70.67;101147.81;6357791;22;47293;-89
2022/06/18 07:54:12;;;;;;;;;9.00;9.00;;;;;31.34;70.51;101142.94;6334085;22;45395;-91
2022/06/18 07:56:38;;;;;;;;;10.33;9.00;;;;;31.44;70.91;101128.13;6333032;22;45359;-91
2022/06/18 07:59:03;;;;;;;;;11.67;10.33;;;;;31.60;71.22;101134.81;6335012;22;45353;-90
2022/06/18 08:01:29;;;;;;;;;6.00;6.00;;;;;31.65;70.89;101141.84;6304981;22;46079;-89
2022/06/18 08:03:54;;;;;;;;;10.00;10.00;;;;;31.80;71.01;101142.22;6334683;22;45299;-90
2022/06/18 08:06:19;;;;;;;;;13.67;12.33;;;;;31.89;70.26;101141.84;6333603;22;45501;-90
2022/06/18 08:08:45;;;;;;;;;10.00;10.00;;;;;31.95;69.44;101156.13;6330823;22;45500;-90
2022/06/18 08:11:13;;;;;;;;;10.00;10.00;;;;;32.12;69.29;101166.34;6333416;22;46318;-90
2022/06/18 08:13:39;;;;;;;;;11.33;11.33;;;;;32.11;68.47;101159.16;6334156;22;45289;-91
2022/06/18 08:16:06;;;;;;;;;11.00;11.00;;;;;32.26;67.57;101173.97;6305673;22;45363;-91
2022/06/18 08:18:32;;;;;;;;;11.33;11.33;;;;;32.39;68.42;101173.47;6334575;22;45492;-91
2022/06/18 08:21:03;;;;;;;;;10.00;10.00;;;;;32.39;67.36;101173.47;6330140;22;47329;-91
2022/06/18 08:23:29;;;;;;;;;11.00;10.00;;;;;32.48;66.70;101178.50;6333854;22;45440;-91
2022/06/18 08:25:54;;;;;;;;;11.00;10.67;;;;;32.63;66.21;101195.13;6305486;22;45394;-91
2022/06/18 08:28:20;;;;;;;;;10.33;10.33;;;;;32.66;65.08;101201.34;6333455;22;45647;-91
2022/06/18 08:30:46;;;;;;;;;11.67;11.67;;;;;32.81;65.73;101198.94;6333055;22;46339;-92
2022/06/18 08:33:11;;;;;;;;;9.33;9.33;;;;;32.97;64.84;101217.31;6339014;22;45294;-91
2022/06/18 08:35:38;;;;;;;;;11.67;11.67;;;;;32.99;65.32;101197.25;6340029;22;45268;-91
2022/06/18 08:38:05;;;;;;;;;10.33;10.33;;;;;33.15;64.91;101212.91;6333871;22;45265;-91
2022/06/18 08:40:37;;;;;;;;;12.00;11.67;;;;;33.27;64.64;101210.66;6357718;22;48141;-91
2022/06/18 08:43:27;;;;;;;;;10.33;10.00;;;;;33.41;64.33;101216.38;6332924;22;45415;-90
2022/06/18 08:46:49;;;;;;;;;9.00;9.00;;;;;33.52;64.67;101201.41;6333499;22;45301;-90
2022/06/18 08:49:47;;;;;;;;;12.00;11.00;;;;;33.64;64.10;101205.38;6237540;22;45335;-90
2022/06/18 08:52:52;;;;;;;;;12.33;11.33;;;;;33.84;63.45;101206.38;6212942;22;48195;-88
2022/06/18 08:55:41;;;;;;;;;10.67;10.67;;;;;33.97;63.22;101206.63;6252504;22;45336;-88
2022/06/18 08:58:16;;;;;;;;;10.00;10.00;;;;;34.11;62.43;101219.63;6147349;23;45434;-90
2022/06/18 09:01:02;;;;;;;;;11.67;10.67;;;;;34.21;63.63;101199.16;6151427;23;45501;-90
2022/06/18 09:03:56;;;;;;;;;10.00;10.00;;;;;34.38;62.79;101205.66;6130083;23;47754;-89
2022/06/18 09:06:55;;;;;;;;;10.33;10.33;;;;;34.55;62.11;101212.13;6124179;23;45428;-89
2022/06/18 09:09:32;;;;;;;;;10.33;10.33;;;;;34.67;61.36;101216.94;6147587;23;45292;-90
2022/06/18 09:12:26;;;;;;;;;12.67;11.33;;;;;34.82;61.55;101217.13;6149608;23;45296;-90
2022/06/18 09:14:59;;;;;;;;;9.00;8.67;;;;;34.87;61.79;101196.00;6146967;23;47792;-89
2022/06/18 09:17:36;;;;;;;;;12.00;11.33;;;;;35.19;60.38;101219.84;6148807;23;45241;-90
2022/06/18 09:20:10;;;;;;;;;12.33;12.33;;;;;35.26;60.80;101194.97;6177193;22;45236;-89
2022/06/18 09:22:42;;;;;;;;;9.33;9.33;;;;;35.48;60.47;101210.22;6214667;22;45437;-90
2022/06/18 09:25:13;;;;;;;;;11.00;9.67;;;;;35.55;58.68;101218.00;6216790;22;48374;-90
2022/06/18 09:28:01;;;;;;;;;13.00;10.67;;;;;35.72;59.48;101215.34;6241321;22;45306;-90
2022/06/18 09:30:35;;;;;;;;;9.67;9.67;;;;;35.98;59.64;101211.16;6239312;22;45420;-90
2022/06/18 09:33:37;;;;;;;;;13.00;11.33;;;;;36.15;58.69;101223.00;6212508;22;45613;-89
2022/06/18 09:36:16;;;;;;;;;10.33;10.00;;;;;36.26;59.48;101197.78;6290141;22;48126;-90
2022/06/18 09:38:50;;;;;;;;;13.00;10.33;;;;;36.50;58.28;101205.59;6335547;22;45261;-90
2022/06/18 09:41:25;;;;;;;;;9.00;8.67;;;;;36.78;58.44;101211.25;6335055;22;45438;-90
2022/06/18 09:44:12;;;;;;;;;10.67;10.67;;;;;36.93;58.55;101186.75;6333922;22;45481;-91
2022/06/18 09:46:46;;;;;;;;;12.00;11.33;;;;;37.12;58.58;101178.28;6335747;22;46552;-91
2022/06/18 09:49:11;;;;;;;;;10.33;10.00;;;;;37.41;57.08;101194.81;6337904;22;45443;-92
2022/06/18 09:54:30;;;;;;;;;9.00;8.33;;;;;37.98;56.01;101183.09;6334481;22;45324;-91
2022/06/18 09:56:59;;;;;;;;;9.00;9.00;;;;;38.97;56.20;101188.44;6305901;22;47307;-92
2022/06/18 09:59:33;;;;;;;;;11.00;11.00;;;;;40.49;55.84;101200.66;6332638;22;45659;-91
2022/06/18 10:02:00;;;;;;;;;8.00;8.00;;;;;41.89;53.58;101188.88;6336393;22;45340;-94
2022/06/18 10:08:18;;;;;;;;;13.00;10.67;;;;;44.79;51.08;101189.59;6342734;22;45397;-95
2022/06/18 11:58:49;;;;;;;;;9.33;8.33;;;;;64.94;23.73;101079.31;6258210;22;46093;31
2022/06/18 12:01:41;;;;;;;;;8.00;6.50;;;;;64.84;23.88;101060.28;6245235;22;45207;-96
2022/06/18 12:07:22;;;;;;;;;7.25;7.25;;;;;64.90;23.30;101061.09;6288368;22;46451;-96
2022/06/18 12:13:11;;;;;;;;;8.50;6.75;;;;;65.20;23.25;101050.63;6350012;22;44835;-96
2022/06/18 12:16:23;;;;;;;;;9.75;8.75;;;;;65.52;22.95;101047.56;6324806;22;44890;-96
2022/06/18 12:19:32;;;;;;;;;6.75;6.75;;;;;65.81;22.96;101028.69;6172989;23;46408;-96
2022/06/18 12:23:21;;;;;;;;;;;;;;;;;;;;;
2022/06/18 12:33:13;;;;;;;;;;;;;;;;;;;;;
2022/06/18 12:36:23;;;;;;;;;5.50;5.25;;;;;66.54;21.77;101028.72;6004247;23;72156;-96
2022/06/18 12:46:27;;;;;;;;;9.75;7.75;;;;;67.43;22.41;101000.75;5915148;24;45592;-96
2022/06/18 12:49:36;;;;;;;;;7.00;7.00;;;;;67.74;22.12;101002.16;5898106;24;44901;-96
2022/06/18 13:04:38;;;;;;;;;;;;;;;;;;;;;
2022/06/18 13:17:59;;;;;;;;;8.75;7.25;;;;;68.87;21.07;100947.56;5920184;24;45838;-96
2022/06/18 13:21:44;;;;;;;;;9.50;8.00;;;;;68.81;21.47;100938.25;5903743;24;45476;-96
2022/06/18 13:34:36;;;;;;;;;9.50;7.50;;;;;68.68;21.05;100913.34;6072554;23;45397;-95
2022/06/18 13:37:18;;;;;;;;;6.75;5.25;;;;;68.72;21.61;100912.34;6063770;23;45593;-93
2022/06/18 13:40:23;;;;;;;;;9.25;7.75;;;;;68.64;21.20;100901.69;6064239;23;47139;-93
2022/06/18 13:44:08;;;;;;;;;9.00;9.00;;;;;68.41;21.91;100878.72;6005164;23;45553;-95
2022/06/18 13:47:13;;;;;;;;;7.25;7.25;;;;;68.31;21.69;100879.78;5957886;23;45545;-96
2022/06/18 13:50:16;;;;;;;;;8.25;8.00;;;;;68.07;21.25;100878.88;5925318;23;45401;-95
2022/06/18 13:52:46;;;;;;;;;8.75;7.75;;;;;67.87;21.27;100869.63;5975425;23;48561;-96
2022/06/18 13:55:30;;;;;;;;;9.25;9.00;;;;;67.78;22.26;100862.94;5956545;23;44817;-96
2022/06/18 13:57:57;;;;;;;;;9.25;7.75;;;;;67.93;22.11;100855.19;5981552;23;45410;-96
2022/06/18 14:00:43;;;;;;;;;8.25;7.00;;;;;68.00;22.10;100849.03;5962340;23;45219;-96
2022/06/18 14:03:16;;;;;;;;;6.75;6.75;;;;;67.91;20.89;100848.94;6000515;23;47110;-96
2022/06/18 14:06:01;;;;;;;;;8.25;7.25;;;;;67.70;22.01;100830.19;6040442;23;45607;-96
2022/06/18 14:08:31;;;;;;;;;9.00;8.50;;;;;67.81;21.51;100836.53;6034883;23;45432;-95
2022/06/18 14:11:00;;;;;;;;;8.75;7.00;;;;;67.80;22.33;100817.63;5992738;23;45395;-96
2022/06/18 14:13:32;;;;;;;;;8.50;7.00;;;;;67.91;21.76;100823.16;6004660;23;47103;-96
2022/06/18 14:16:06;;;;;;;;;6.75;6.75;;;;;67.90;21.61;100799.41;6036458;23;45080;-96
2022/06/18 14:18:42;;;;;;;;;8.00;7.00;;;;;67.92;22.14;100807.69;6040428;23;45243;-96
2022/06/18 14:21:11;;;;;;;;;5.00;5.00;;;;;67.83;21.73;100807.59;6263190;22;45345;-96
2022/06/18 14:23:59;;;;;;;;;9.00;7.00;;;;;67.61;22.03;100797.78;6291572;22;47871;-96
2022/06/18 14:26:37;;;;;;;;;8.00;8.00;;;;;67.50;22.22;100803.69;6290944;22;45188;-96
2022/06/18 14:29:08;;;;;;;;;8.25;7.00;;;;;67.28;22.06;100790.13;6281322;22;45438;-96
2022/06/18 14:32:38;;;;;;;;;8.00;7.25;;;;;67.14;22.02;100790.13;6276542;22;45174;-95
2022/06/18 14:35:30;;;;;;;;;8.00;8.00;;;;;66.89;21.92;100790.28;6086002;23;46842;-95
2022/06/18 14:38:16;;;;;;;;;8.00;8.00;;;;;66.38;21.96;100759.44;6088095;23;45426;-96
2022/06/18 14:44:15;;;;;;;;;7.00;7.00;;;;;63.09;22.56;100752.81;6005377;23;45575;-96
2022/06/18 14:47:28;;;;;;;;;8.00;8.00;;;;;60.45;23.35;100741.84;6014230;23;45816;-95
2022/06/18 14:50:02;;;;;;;;;9.50;8.50;;;;;58.21;24.42;100714.94;6012738;23;45461;-96
2022/06/18 14:53:01;;;;;;;;;8.75;8.75;;;;;56.30;25.94;100717.56;6007648;23;45393;-95
2022/06/18 14:55:32;;;;;;;;;8.75;7.25;;;;;54.74;26.63;100715.38;5978989;23;45733;-95
2022/06/18 14:58:01;;;;;;;;;7.25;6.00;;;;;53.46;27.18;100704.50;6005029;23;46962;-96
2022/06/18 15:00:35;;;;;;;;;6.50;6.50;;;;;52.40;28.36;100705.97;6003779;23;45323;-95
2022/06/18 15:03:28;;;;;;;;;8.50;8.50;;;;;51.25;29.41;100678.31;6005169;23;45453;-95
2022/06/18 15:06:01;;;;;;;;;7.75;7.75;;;;;50.43;29.58;100669.25;6006212;23;45556;-96
2022/06/18 15:08:27;;;;;;;;;7.75;7.00;;;;;49.57;30.33;100654.84;5985773;23;48137;-96
2022/06/18 15:11:05;;;;;;;;;8.25;7.75;;;;;48.89;30.50;100660.22;6071263;23;45503;-95
2022/06/18 15:13:43;;;;;;;;;6.75;6.75;;;;;48.08;31.30;100642.88;6178850;22;45251;-96
2022/06/18 15:19:41;;;;;;;;;8.25;7.50;;;;;46.81;32.63;100644.22;6208429;22;45552;-94
2022/06/18 15:22:28;;;;;;;;;7.00;7.00;;;;;46.14;32.93;100632.16;6244465;22;46001;-95
2022/06/18 15:25:23;;;;;;;;;10.33;7.33;;;;;45.79;33.67;100634.97;6243889;22;45385;-95
2022/06/18 15:28:11;;;;;;;;;9.00;7.00;;;;;45.29;34.74;100630.91;6244674;22;45411;-96
2022/06/18 15:30:45;;;;;;;;;8.67;7.67;;;;;44.92;34.08;100618.19;6231776;22;47322;-96
2022/06/18 15:33:10;;;;;;;;;6.00;6.00;;;;;44.60;35.24;100612.22;6246565;22;45617;-96
2022/06/18 15:35:55;;;;;;;;;9.00;7.67;;;;;44.10;35.47;100591.28;6271384;22;45401;-96
2022/06/18 15:38:59;;;;;;;;;6.67;6.67;;;;;43.75;36.05;100579.16;6257143;22;45010;-96
2022/06/18 15:41:50;;;;;;;;;9.00;7.00;;;;;43.45;36.15;100576.53;6219413;22;47095;-96
2022/06/18 15:44:30;;;;;;;;;8.00;8.00;;;;;43.18;36.79;100583.72;6262077;22;45707;-96
2022/06/18 15:47:05;;;;;;;;;8.00;7.00;;;;;42.86;37.15;100574.78;6260513;22;44974;-96
2022/06/18 15:49:51;;;;;;;;;7.67;7.00;;;;;42.65;37.01;100570.31;6256890;22;45516;-96
2022/06/18 15:52:47;;;;;;;;;7.33;6.00;;;;;42.44;37.50;100568.56;6282594;22;47544;-96
2022/06/18 15:55:30;;;;;;;;;7.00;7.00;;;;;42.09;37.61;100538.66;6258361;22;45239;-96
2022/06/18 15:58:02;;;;;;;;;7.33;7.33;;;;;42.06;37.89;100557.38;6320610;22;44824;-96
2022/06/18 16:16:45;;;;;;;;;7.00;7.00;;;;;40.71;39.95;100495.81;6291885;22;45261;-96
2022/06/18 16:19:17;;;;;;;;;8.67;8.33;;;;;40.60;39.98;100501.31;6318195;22;45253;-96
2022/06/18 16:21:47;;;;;;;;;6.67;6.67;;;;;40.42;40.15;100482.69;6317122;22;45372;-96
2022/06/18 16:27:36;;;;;;;;;6.00;6.00;;;;;40.28;40.39;100497.66;6318910;22;45871;-96
2022/06/18 16:30:19;;;;;;;;;8.33;6.00;;;;;40.02;40.65;100481.50;6359431;22;44717;-96
2022/06/18 16:38:35;;;;;;;;;8.67;8.00;;;;;39.83;40.81;100485.78;6321007;22;45675;-95
2022/06/18 16:41:20;;;;;;;;;7.67;7.67;;;;;39.58;41.20;100457.63;6323168;22;45346;-96
2022/06/18 16:43:49;;;;;;;;;6.33;6.33;;;;;39.63;41.30;100482.81;6318613;22;45250;-96
2022/06/18 16:46:21;;;;;;;;;7.00;6.00;;;;;39.52;41.20;100478.22;6319854;22;48136;-96
2022/06/18 17:13:09;;;;;;;;;7.67;7.67;;;;;38.65;42.55;100440.28;6273019;22;46280;-95
2022/06/18 17:15:34;;;;;;;;;6.33;6.33;;;;;38.59;42.51;100435.28;6338470;22;45365;-95
2022/06/18 17:17:59;;;;;;;;;7.33;7.00;;;;;38.49;42.78;100424.19;6311242;22;46145;-96
2022/06/18 17:20:25;;;;;;;;;9.00;7.00;;;;;38.42;43.20;100426.53;6317155;22;45035;-96
2022/06/18 17:22:53;;;;;;;;;10.00;8.67;;;;;38.38;43.11;100417.69;6322027;22;45171;-96
2022/06/18 17:31:08;;;;;;;;;7.00;6.00;;;;;38.24;43.24;100429.72;6339501;22;45320;-94
2022/06/18 17:33:36;;;;;;;;;5.00;5.00;;;;;38.21;43.48;100427.19;6335820;22;45418;-96
2022/06/18 17:36:05;;;;;;;;;6.33;6.33;;;;;38.07;43.73;100403.59;6315347;22;45337;-96
2022/06/18 17:38:32;;;;;;;;;10.67;6.00;;;;;38.00;43.76;100405.97;6321401;22;47029;-96
2022/06/18 17:41:06;;;;;;;;;8.00;6.33;;;;;37.96;43.97;100404.47;6294195;22;45286;-96
2022/06/18 17:43:36;;;;;;;;;7.33;6.00;;;;;37.87;44.18;100406.00;6310443;22;45269;-95
2022/06/18 17:46:04;;;;;;;;;9.00;8.33;;;;;37.79;44.28;100392.91;6311461;22;45263;-96
2022/06/18 17:48:31;;;;;;;;;6.67;6.00;;;;;37.84;44.40;100404.38;6316250;22;47316;-96
2022/06/18 17:50:57;;;;;;;;;10.33;8.67;;;;;37.70;44.35;100393.63;6309018;22;45276;-96
2022/06/18 17:53:25;;;;;;;;;7.33;7.33;;;;;37.74;44.22;100396.00;6341641;22;45396;-95
2022/06/18 17:55:50;;;;;;;;;8.67;7.00;;;;;37.67;44.57;100390.13;6313908;22;45540;-96
2022/06/18 17:58:29;;;;;;;;;6.67;5.67;;;;;37.56;44.60;100376.38;6349523;22;45280;-96
2022/06/18 18:00:54;;;;;;;;;8.00;7.67;;;;;37.62;44.89;100391.47;6294494;22;45227;-96
2022/06/18 18:03:21;;;;;;;;;9.00;6.00;;;;;37.50;44.84;100380.44;6319569;22;45278;-95
2022/06/18 18:05:47;;;;;;;;;8.00;6.67;;;;;37.42;44.87;100369.22;6320643;22;45444;-96
2022/06/18 18:08:22;;;;;;;;;7.33;7.33;;;;;37.45;45.41;100375.31;6323865;22;46885;-96
2022/06/18 18:10:49;;;;;;;;;8.00;7.00;;;;;37.37;45.72;100379.59;6318235;22;45360;-96
2022/06/18 18:13:16;;;;;;;;;9.33;9.33;;;;;37.34;45.61;100372.50;6315366;22;45779;-96
2022/06/18 18:15:42;;;;;;;;;12.33;12.33;;;;;37.27;46.13;100374.81;6320023;22;45080;-96
2022/06/18 18:18:13;;;;;;;;;10.33;10.33;;;;;37.21;46.42;100369.81;6317160;22;46912;-96
2022/06/18 18:20:38;;;;;;;;;7.67;7.00;;;;;37.19;46.24;100369.06;6314466;22;45691;-96
2022/06/18 18:23:05;;;;;;;;;7.00;7.00;;;;;37.05;46.36;100354.53;6338976;22;45315;-96
2022/06/18 18:25:33;;;;;;;;;9.00;9.00;;;;;37.10;46.62;100379.69;6313251;22;45311;-96
2022/06/18 18:28:02;;;;;;;;;8.00;6.00;;;;;37.03;46.66;100370.19;6307372;22;48027;-95
2022/06/18 18:30:27;;;;;;;;;8.00;8.00;;;;;37.03;47.22;100377.50;6306753;22;45325;-96
2022/06/18 18:32:53;;;;;;;;;8.33;6.67;;;;;36.94;47.41;100365.38;6311895;22;45142;-96
2022/06/18 18:35:19;;;;;;;;;7.00;7.00;;;;;36.84;47.36;100352.38;6307465;22;45624;-95
2022/06/18 18:37:44;;;;;;;;;7.67;6.67;;;;;36.82;47.34;100361.66;6307789;22;48025;-95
2022/06/18 18:40:11;;;;;;;;;10.00;8.00;;;;;36.67;47.21;100345.41;6305788;22;45307;-95
2022/06/18 18:42:38;;;;;;;;;7.00;5.00;;;;;36.71;47.37;100344.19;6306333;22;45624;-95
2022/06/18 18:45:05;;;;;;;;;6.00;6.00;;;;;36.72;47.46;100354.16;6307450;22;45278;-95
2022/06/18 18:47:31;;;;;;;;;6.00;6.00;;;;;36.59;47.51;100337.75;6311171;22;46882;-91
2022/06/18 18:49:57;;;;;;;;;7.67;7.67;;;;;36.64;47.58;100345.63;6303843;22;45571;-89
2022/06/18 18:52:23;;;;;;;;;8.00;6.67;;;;;36.58;47.55;100340.59;6303576;22;45289;-89
2022/06/18 18:54:49;;;;;;;;;9.00;7.33;;;;;36.52;47.51;100325.53;6332609;22;45276;-93
2022/06/18 18:57:15;;;;;;;;;8.33;6.67;;;;;36.47;47.38;100330.44;6303309;22;47888;-92
2022/06/18 18:59:41;;;;;;;;;7.67;6.67;;;;;36.47;47.75;100322.25;6305054;22;45417;-90
2022/06/18 19:02:09;;;;;;;;;7.67;7.33;;;;;36.42;47.99;100325.28;6332246;22;45377;-92
2022/06/18 19:04:35;;;;;;;;;7.33;7.00;;;;;36.36;48.02;100315.66;6333547;22;45544;-91
2022/06/18 19:07:01;;;;;;;;;8.00;8.00;;;;;36.32;48.18;100309.53;6329327;22;47180;-91
2022/06/18 19:09:27;;;;;;;;;7.67;7.67;;;;;36.27;48.53;100317.19;6329680;22;45474;-90
2022/06/18 19:14:39;;;;;;;;;7.67;7.67;;;;;36.17;48.94;100307.91;6330956;22;45319;-90
2022/06/18 19:17:07;;;;;;;;;8.00;8.00;;;;;36.08;49.20;100301.25;6330732;22;46117;-90
2022/06/18 19:19:33;;;;;;;;;11.33;10.67;;;;;36.01;49.18;100300.78;6303547;22;45760;-89
2022/06/18 19:22:00;;;;;;;;;11.00;10.00;;;;;35.93;50.12;100294.97;6332347;22;45262;-90
2022/06/18 19:24:28;;;;;;;;;11.00;11.00;;;;;35.82;50.29;100296.59;6334518;22;45685;-90
2022/06/18 19:26:55;;;;;;;;;8.33;8.33;;;;;35.73;50.55;100281.72;6332655;22;46396;-90
2022/06/18 19:29:22;;;;;;;;;13.00;12.00;;;;;35.69;50.77;100284.78;6303082;22;45554;-89
2022/06/18 19:31:48;;;;;;;;;15.67;15.67;;;;;35.61;50.83;100274.38;6305175;22;45347;-90
2022/06/18 19:34:14;;;;;;;;;18.00;18.00;;;;;35.51;51.65;100274.16;6304623;22;45337;-92
2022/06/18 19:36:41;;;;;;;;;20.25;19.25;;;;;35.42;51.73;100260.16;6332299;22;45545;-91
2022/06/18 19:39:07;;;;;;;;;32.25;28.00;;;;;35.37;52.24;100266.91;6303803;22;45437;-90
2022/06/18 19:41:33;;;;;;;;;23.75;22.25;;;;;35.31;52.05;100270.88;6304709;22;45360;-91
2022/06/18 19:44:00;;;;;;;;;25.00;24.00;;;;;35.20;52.51;100271.63;6332014;22;45507;-91
2022/06/18 19:46:26;;;;;;;;;25.25;23.50;;;;;35.16;52.86;100270.94;6333040;22;45359;-91
2022/06/18 19:48:51;;;;;;;;;21.25;18.75;;;;;35.06;53.07;100259.78;6332740;22;45552;-90
2022/06/18 19:51:17;;;;;;;;;22.25;19.50;;;;;34.99;53.99;100258.44;6331180;22;45314;-91
2022/06/18 19:53:44;;;;;;;;;16.75;15.75;;;;;34.94;54.67;100260.59;6304659;22;52547;-92
2022/06/18 19:56:12;;;;;;;;;23.50;21.25;;;;;34.87;55.06;100254.66;6334419;22;46025;-92
2022/06/18 19:58:37;;;;;;;;;19.00;17.00;;;;;34.81;55.28;100257.78;6304207;22;45270;-90
2022/06/18 20:01:03;;;;;;;;;18.33;18.00;;;;;34.73;55.65;100250.97;6333484;22;45335;-91
2022/06/18 20:03:29;;;;;;;;;17.67;16.00;;;;;34.65;56.00;100245.16;6304578;22;45469;-88
2022/06/18 20:05:58;;;;;;;;;20.00;17.50;;;;;34.61;56.59;100240.88;6331792;22;45293;-90
2022/06/18 20:08:24;;;;;;;;;20.50;18.00;;;;;34.49;56.54;100242.53;6304193;22;45320;-89
2022/06/18 20:10:50;;;;;;;;;16.33;13.33;;;;;34.44;57.21;100234.66;6333890;22;45376;-91
2022/06/18 20:13:15;;;;;;;;;17.67;14.67;;;;;34.40;57.39;100236.72;6332421;22;45631;-92
2022/06/18 20:15:41;;;;;;;;;16.67;15.67;;;;;34.33;57.41;100238.06;6332269;22;46057;-92
2022/06/18 20:18:06;;;;;;;;;17.33;14.33;;;;;34.23;57.83;100227.75;6332650;22;45295;-91
2022/06/18 20:20:36;;;;;;;;;16.67;16.67;;;;;34.21;58.19;100239.72;6303870;22;45218;-91
2022/06/18 20:23:01;;;;;;;;;15.00;15.00;;;;;34.17;58.49;100246.34;6333515;22;45569;-91
2022/06/18 20:25:26;;;;;;;;;16.33;14.00;;;;;34.09;58.67;100234.09;6332975;22;45319;-90
2022/06/18 22:29:56;;;;;;;;;19.33;17.00;;;;;31.94;67.92;99984.78;6222781;22;44752;-96
2022/06/18 22:58:21;;;;;;;;;;;;;;;;;;;;;
2022/06/18 23:01:44;;;;;;;;;;;;;;;;;;;;;
2022/06/18 23:22:23;;;;;;;;;20.33;17.67;;;;;31.35;70.06;100041.28;6339562;22;46443;-96
2022/06/18 23:24:51;;;;;;;;;19.67;17.33;;;;;31.27;70.46;100044.41;6287697;22;45197;-96
